createdAt,value
2023-04-21T08:15:05.867Z,2.95
2023-04-21T08:29:51.559Z,2.50
2023-04-21T08:32:26.433Z,3.00
2023-04-21T08:34:54.648Z,2.80
2023-04-21T08:37:22.973Z,2.78
2023-04-21T08:39:53.693Z,2.62
2023-04-21T08:42:21.251Z,2.62
2023-04-21T08:44:48.967Z,2.87
2023-04-21T08:47:16.371Z,3.20
2023-04-21T08:49:45.294Z,3.10
2023-04-21T08:52:14.500Z,2.90
2023-04-21T08:54:41.980Z,3.15
2023-04-21T08:57:15.222Z,3.33
2023-04-21T08:59:44.960Z,2.90
2023-04-21T09:02:15.573Z,3.30
2023-04-21T09:04:52.048Z,3.20
2023-04-21T09:07:34.328Z,3.23
2023-04-21T09:10:02.027Z,3.20
2023-04-21T09:12:30.051Z,3.30
2023-04-21T09:14:58.270Z,3.10
2023-04-21T09:17:32.685Z,3.00
2023-04-21T09:20:14.412Z,3.70
2023-04-21T09:22:42.324Z,3.10
2023-04-21T09:25:10.083Z,3.50
2023-04-21T09:27:37.952Z,3.67
2023-04-21T09:30:07.287Z,3.73
2023-04-21T09:32:41.773Z,3.50
2023-04-21T09:35:12.457Z,3.70
2023-04-21T09:37:43.559Z,3.53
2023-04-21T09:40:15.084Z,3.85
2023-04-21T09:42:44.691Z,3.70
2023-04-21T09:47:51.372Z,3.80
2023-04-21T09:50:41.757Z,4.12
2023-04-21T09:53:15.686Z,4.28
2023-04-21T09:55:43.504Z,3.83
2023-04-21T09:58:12.476Z,4.00
2023-04-21T10:00:41.004Z,4.10
2023-04-21T10:03:11.575Z,3.90
2023-04-21T10:05:42.063Z,3.92
2023-04-21T10:08:11.954Z,4.30
2023-04-21T10:10:39.846Z,4.05
2023-04-21T10:13:07.640Z,4.37
2023-04-21T10:15:40.160Z,4.40
2023-04-21T10:18:19.816Z,4.40
2023-04-21T10:21:09.715Z,4.10
2023-04-21T10:23:43.602Z,4.30
2023-04-21T10:26:34.846Z,4.50
2023-04-21T10:29:04.462Z,4.43
2023-04-21T10:31:36.710Z,4.32
2023-04-21T10:34:09.828Z,4.50
2023-04-21T10:36:51.794Z,4.43
2023-04-21T10:39:25.389Z,4.57
2023-04-21T10:41:58.198Z,4.12
2023-04-21T10:44:28.828Z,4.37
2023-04-21T10:46:58.964Z,4.15
2023-04-21T10:49:32.706Z,4.10
2023-04-21T10:52:00.736Z,4.65
2023-04-21T10:54:31.757Z,4.20
2023-04-21T10:56:59.561Z,4.15
2023-04-21T10:59:27.316Z,4.93
2023-04-21T11:01:54.898Z,4.25
2023-04-21T11:04:23.470Z,4.47
2023-04-21T11:07:08.104Z,4.60
2023-04-21T11:09:36.710Z,4.68
2023-04-21T11:12:07.504Z,4.87
2023-04-21T11:14:37.183Z,4.40
2023-04-21T11:17:06.387Z,4.40
2023-04-21T11:19:33.839Z,4.32
2023-04-21T11:22:01.499Z,4.20
2023-04-21T11:24:29.100Z,4.18
2023-04-21T11:26:56.847Z,4.22
2023-04-21T11:29:24.500Z,4.50
2023-04-21T11:31:53.819Z,4.65
2023-04-21T11:34:22.136Z,4.47
2023-04-21T11:36:49.632Z,4.78
2023-04-21T11:39:21.830Z,4.97
2023-04-21T11:41:50.856Z,5.00
2023-04-21T11:44:32.113Z,4.57
2023-04-21T11:46:59.766Z,5.22
2023-04-21T11:49:31.965Z,4.80
2023-04-21T11:51:59.644Z,5.20
2023-04-21T11:54:29.362Z,5.12
2023-04-21T11:56:56.832Z,5.03
2023-04-21T11:59:26.343Z,5.10
2023-04-21T12:01:55.109Z,4.85
2023-04-21T12:04:24.587Z,4.95
2023-04-21T12:06:59.306Z,4.90
2023-04-21T12:09:27.612Z,5.07
2023-04-21T12:12:01.782Z,4.85
2023-04-21T12:14:29.471Z,4.30
2023-04-21T12:16:58.425Z,5.03
2023-04-21T12:19:39.688Z,4.97
2023-04-21T12:22:11.783Z,4.70
2023-04-21T12:24:39.971Z,5.30
2023-04-21T12:27:08.523Z,4.97
2023-04-21T12:29:37.491Z,5.30
2023-04-21T12:32:06.474Z,5.10
2023-04-21T12:34:34.865Z,5.37
2023-04-21T12:37:02.954Z,5.10
2023-04-21T12:39:31.539Z,4.97
2023-04-21T12:41:59.900Z,5.35
2023-04-21T12:44:27.478Z,5.15
2023-04-21T12:46:54.989Z,5.43
2023-04-21T12:49:22.752Z,5.07
2023-04-21T12:51:50.224Z,4.97
2023-04-21T12:54:17.735Z,5.47
2023-04-21T12:56:45.955Z,5.63
2023-04-21T12:59:13.631Z,5.45
2023-04-21T13:01:42.701Z,5.45
2023-04-21T13:04:10.658Z,5.20
2023-04-21T13:06:39.238Z,4.97
2023-04-21T13:09:06.848Z,5.37
2023-04-21T13:11:34.721Z,4.95
2023-04-21T13:14:04.126Z,5.15
2023-04-21T13:16:32.659Z,5.43
2023-04-21T13:19:00.340Z,5.30
2023-04-21T13:21:27.984Z,5.32
2023-04-21T13:23:56.245Z,5.30
2023-04-21T13:26:24.489Z,5.40
2023-04-21T13:28:51.864Z,5.55
2023-04-21T13:31:19.499Z,5.35
2023-04-21T13:33:47.210Z,5.40
2023-04-21T13:36:14.821Z,5.53
2023-04-21T13:38:42.417Z,5.60
2023-04-21T13:41:10.135Z,5.70
2023-04-21T13:43:37.637Z,5.70
2023-04-21T13:46:05.557Z,5.30
2023-04-21T13:48:33.464Z,5.53
2023-04-21T13:51:00.933Z,5.97
2023-04-21T13:53:28.505Z,5.17
2023-04-21T13:55:57.538Z,5.80
2023-04-21T13:58:25.394Z,5.32
2023-04-21T14:00:52.799Z,4.95
2023-04-21T14:03:20.967Z,5.05
2023-04-21T14:05:48.577Z,5.40
2023-04-21T14:08:16.066Z,5.03
2023-04-21T14:10:43.854Z,5.10
2023-04-21T14:13:17.422Z,5.10
2023-04-21T14:15:56.135Z,5.03
2023-04-21T14:18:24.019Z,4.80
2023-04-21T14:20:51.472Z,5.40
2023-04-21T14:23:19.202Z,5.05
2023-04-21T14:25:46.598Z,4.82
2023-04-21T14:28:14.710Z,4.80
2023-04-21T14:30:43.232Z,4.60
2023-04-21T14:33:10.952Z,5.00
2023-04-21T14:35:38.464Z,4.87
2023-04-21T14:38:06.206Z,4.87
2023-04-21T14:40:33.880Z,5.20
2023-04-21T14:43:01.268Z,5.05
2023-04-21T14:45:29.046Z,5.47
2023-04-21T14:47:56.531Z,5.27
2023-04-21T14:50:23.961Z,5.03
2023-04-21T14:52:51.679Z,5.10
2023-04-21T14:55:19.182Z,5.40
2023-04-21T14:57:47.130Z,5.25
2023-04-21T15:00:15.063Z,5.65
2023-04-21T15:02:43.234Z,5.47
2023-04-21T15:05:11.313Z,5.25
2023-04-21T15:07:40.524Z,5.72
2023-04-21T15:10:08.821Z,5.62
2023-04-21T15:12:36.805Z,5.78
2023-04-21T15:15:05.906Z,5.40
2023-04-21T15:17:34.178Z,5.45
2023-04-21T15:20:01.589Z,5.47
2023-04-21T15:22:30.402Z,5.35
2023-04-21T15:24:57.918Z,5.20
2023-04-21T15:27:25.389Z,5.22
2023-04-21T15:29:53.091Z,5.22
2023-04-21T15:32:20.595Z,5.30
2023-04-21T15:34:49.088Z,5.00
2023-04-21T15:37:17.760Z,5.20
2023-04-21T15:39:45.169Z,4.87
2023-04-21T15:42:12.693Z,4.90
2023-04-21T15:44:40.451Z,5.28
2023-04-21T15:47:07.964Z,5.37
2023-04-21T15:49:35.612Z,5.20
2023-04-21T15:52:04.951Z,5.40
2023-04-21T15:54:34.237Z,5.22
2023-04-21T15:57:05.563Z,4.80
2023-04-21T15:59:33.267Z,5.30
2023-04-21T16:02:00.799Z,5.20
2023-04-21T16:04:28.736Z,5.20
2023-04-21T16:06:56.533Z,5.18
2023-04-21T16:09:24.135Z,5.03
2023-04-21T16:11:52.056Z,5.35
2023-04-21T16:14:19.542Z,4.93
2023-04-21T16:16:46.949Z,4.90
2023-04-21T16:19:14.717Z,5.40
2023-04-21T16:21:42.685Z,4.80
2023-04-21T16:24:10.322Z,5.12
2023-04-21T16:26:38.205Z,4.77
2023-04-21T16:29:05.782Z,4.70
2023-04-21T16:31:33.361Z,4.90
2023-04-21T16:34:01.300Z,5.13
2023-04-21T16:36:28.868Z,5.15
2023-04-21T16:38:56.427Z,5.10
2023-04-21T16:41:24.441Z,5.40
2023-04-21T16:43:51.892Z,5.12
2023-04-21T16:46:19.359Z,5.18
2023-04-21T16:48:47.387Z,6.63
2023-04-21T16:51:14.977Z,5.93
2023-04-21T16:53:42.606Z,6.40
2023-04-21T16:56:10.239Z,6.28
2023-04-21T16:58:37.970Z,6.00
2023-04-21T17:01:07.683Z,6.00
2023-04-21T17:03:35.716Z,6.25
2023-04-21T17:06:05.008Z,6.57
2023-04-21T17:08:33.006Z,5.82
2023-04-21T17:11:00.726Z,9.47
2023-04-21T17:13:28.403Z,7.70
2023-04-21T17:15:56.137Z,5.97
2023-04-21T17:18:23.793Z,6.50
2023-04-21T17:20:51.196Z,6.97
2023-04-21T17:23:18.553Z,6.82
2023-04-21T17:25:46.403Z,7.20
2023-04-21T17:28:15.334Z,6.60
2023-04-21T17:30:42.786Z,6.12
2023-04-21T17:35:55.857Z,6.72
2023-04-21T17:38:29.739Z,7.15
2023-04-21T17:40:57.177Z,6.90
2023-04-21T17:43:24.631Z,7.73
2023-04-21T17:45:53.104Z,8.30
2023-04-21T17:48:21.254Z,9.63
2023-04-21T17:50:48.636Z,9.70
2023-04-21T17:53:17.420Z,11.02
2023-04-21T17:55:44.989Z,11.48
2023-04-21T17:58:12.764Z,9.50
2023-04-21T18:00:40.996Z,8.43
2023-04-21T18:03:08.884Z,7.97
2023-04-21T18:05:36.564Z,9.10
2023-04-21T18:08:04.210Z,8.85
2023-04-21T18:10:31.896Z,9.50
2023-04-21T18:12:59.599Z,8.85
2023-04-21T18:15:27.066Z,9.88
2023-04-21T18:17:55.109Z,11.13
2023-04-21T18:20:22.510Z,9.93
2023-04-21T18:22:51.770Z,9.68
2023-04-21T18:25:34.051Z,10.57
2023-04-21T18:28:08.214Z,12.00
2023-04-21T18:30:36.129Z,12.60
2023-04-21T18:33:03.972Z,12.60
2023-04-21T18:35:34.466Z,13.00
2023-04-21T18:38:02.558Z,12.93
2023-04-21T18:40:30.824Z,14.18
2023-04-21T18:42:58.581Z,14.65
2023-04-21T18:45:27.704Z,15.35
2023-04-21T18:47:55.806Z,14.90
2023-04-21T18:50:23.470Z,15.77
2023-04-21T18:52:52.219Z,15.48
2023-04-21T18:55:20.458Z,15.70
2023-04-21T18:57:48.309Z,15.63
2023-04-21T19:00:16.377Z,14.15
2023-04-21T19:02:48.848Z,16.80
2023-04-21T19:05:17.522Z,15.98
2023-04-21T19:07:45.182Z,16.23
2023-04-21T19:10:14.803Z,16.20
2023-04-21T19:12:42.839Z,14.38
2023-04-21T19:15:10.557Z,13.93
2023-04-21T19:17:40.158Z,12.35
2023-04-21T19:20:08.685Z,11.03
2023-04-21T19:22:36.436Z,11.07
2023-04-21T19:25:04.224Z,10.45
2023-04-21T19:27:33.182Z,10.55
2023-04-21T19:30:01.407Z,12.77
2023-04-21T19:32:29.361Z,14.48
2023-04-21T19:34:59.311Z,14.38
2023-04-21T19:37:28.627Z,15.93
2023-04-21T19:39:57.492Z,17.08
2023-04-21T19:42:25.670Z,16.90
2023-04-21T19:44:53.628Z,17.10
2023-04-21T19:47:21.375Z,15.70
2023-04-21T19:49:49.880Z,13.43
2023-04-21T19:52:17.537Z,10.88
2023-04-21T19:54:45.715Z,11.25
2023-04-21T19:57:17.936Z,10.32
2023-04-21T19:59:45.568Z,11.23
2023-04-21T20:02:14.037Z,10.93
2023-04-21T20:04:45.448Z,12.13
2023-04-21T20:07:13.228Z,10.60
2023-04-21T20:09:41.136Z,11.40
2023-04-21T20:12:10.475Z,11.80
2023-04-21T20:14:39.044Z,11.30
2023-04-21T20:17:06.633Z,11.07
2023-04-21T20:19:35.875Z,9.90
2023-04-21T20:22:03.965Z,10.43
2023-04-21T20:24:31.832Z,10.07
2023-04-21T20:26:59.882Z,10.90
2023-04-21T20:29:27.483Z,12.87
2023-04-21T20:31:54.976Z,14.15
2023-04-21T20:34:22.770Z,15.55
2023-04-21T20:36:51.713Z,13.90
2023-04-21T20:39:19.169Z,12.52
2023-04-21T20:41:51.038Z,11.00
2023-04-21T20:44:31.184Z,13.98
2023-04-21T20:47:00.782Z,10.65
2023-04-21T20:49:28.492Z,9.70
2023-04-21T20:51:57.836Z,9.50
2023-04-21T20:54:25.919Z,9.80
2023-04-21T20:56:53.704Z,9.27
2023-04-21T20:59:21.235Z,8.75
2023-04-21T21:01:48.941Z,7.18
2023-04-21T21:04:16.458Z,7.87
2023-04-21T21:06:43.977Z,7.40
2023-04-21T21:09:11.802Z,9.23
2023-04-21T21:11:39.176Z,9.55
2023-04-21T21:14:06.581Z,8.50
2023-04-21T21:16:34.377Z,8.35
2023-04-21T21:19:01.767Z,8.52
2023-04-21T21:21:29.115Z,8.63
2023-04-21T21:23:59.184Z,7.35
2023-04-21T21:26:27.023Z,8.30
2023-04-21T21:28:54.382Z,8.40
2023-04-21T21:31:22.098Z,8.32
2023-04-21T21:33:49.564Z,8.35
2023-04-21T21:36:17.101Z,8.38
2023-04-21T21:38:44.910Z,8.20
2023-04-21T21:41:14.010Z,8.07
2023-04-21T21:43:41.418Z,7.65
2023-04-21T21:46:09.166Z,8.02
2023-04-21T21:48:36.603Z,8.02
2023-04-21T21:51:05.694Z,6.68
